sensor_id;sensor_type;location;lat;lon;timestamp;P1;P2;P0
43280;PMS5003;62175;49.416;8.690;2023-03-03T00:00:56;29;25;
43280;PMS5003;62175;49.416;8.690;2023-03-03T00:03:24;28;27;
43280;PMS5003;62175;49.416;8.690;2023-03-03T00:05:52;32;29;
43280;PMS5003;62175;49.416;8.690;2023-03-03T00:08:20;28;24;
43280;PMS5003;62175;49.416;8.690;2023-03-03T00:10:48;28;22;
43280;PMS5003;62175;49.416;8.690;2023-03-03T00:13:17;29;26;
43280;PMS5003;62175;49.416;8.690;2023-03-03T00:15:46;28;25;
43280;PMS5003;62175;49.416;8.690;2023-03-03T00:18:20;24;22;
43280;PMS5003;62175;49.416;8.690;2023-03-03T00:20:56;26;23;
43280;PMS5003;62175;49.416;8.690;2023-03-03T00:23:28;27;25;
43280;PMS5003;62175;49.416;8.690;2023-03-03T00:26:01;23;20;
43280;PMS5003;62175;49.416;8.690;2023-03-03T00:28:38;23;21;
43280;PMS5003;62175;49.416;8.690;2023-03-03T00:31:13;26;21;
43280;PMS5003;62175;49.416;8.690;2023-03-03T00:33:49;30;26;
43280;PMS5003;62175;49.416;8.690;2023-03-03T00:36:22;27;24;
43280;PMS5003;62175;49.416;8.690;2023-03-03T00:38:56;25;22;
43280;PMS5003;62175;49.416;8.690;2023-03-03T00:41:37;24;22;
43280;PMS5003;62175;49.416;8.690;2023-03-03T00:44:26;28;27;
43280;PMS5003;62175;49.416;8.690;2023-03-03T00:47:12;32;28;
43280;PMS5003;62175;49.416;8.690;2023-03-03T00:49:49;35;30;
43280;PMS5003;62175;49.416;8.690;2023-03-03T00:52:18;33;30;
43280;PMS5003;62175;49.416;8.690;2023-03-03T00:54:46;33;28;
43280;PMS5003;62175;49.416;8.690;2023-03-03T00:57:15;30;27;
43280;PMS5003;62175;49.416;8.690;2023-03-03T00:59:43;29;25;
43280;PMS5003;62175;49.416;8.690;2023-03-03T01:02:11;30;27;
43280;PMS5003;62175;49.416;8.690;2023-03-03T01:04:40;27;24;
43280;PMS5003;62175;49.416;8.690;2023-03-03T01:07:10;27;25;
43280;PMS5003;62175;49.416;8.690;2023-03-03T01:09:38;28;24;
43280;PMS5003;62175;49.416;8.690;2023-03-03T01:12:05;29;27;
43280;PMS5003;62175;49.416;8.690;2023-03-03T01:14:33;25;22;
43280;PMS5003;62175;49.416;8.690;2023-03-03T01:17:01;27;25;
43280;PMS5003;62175;49.416;8.690;2023-03-03T01:19:29;29;27;
43280;PMS5003;62175;49.416;8.690;2023-03-03T01:21:57;24;22;
43280;PMS5003;62175;49.416;8.690;2023-03-03T01:24:24;26;24;
43280;PMS5003;62175;49.416;8.690;2023-03-03T01:26:51;26;24;
43280;PMS5003;62175;49.416;8.690;2023-03-03T01:29:19;26;24;
43280;PMS5003;62175;49.416;8.690;2023-03-03T01:31:48;27;24;
43280;PMS5003;62175;49.416;8.690;2023-03-03T01:34:16;28;25;
43280;PMS5003;62175;49.416;8.690;2023-03-03T01:36:44;25;24;
43280;PMS5003;62175;49.416;8.690;2023-03-03T01:39:12;26;24;
43280;PMS5003;62175;49.416;8.690;2023-03-03T01:41:41;22;20;
43280;PMS5003;62175;49.416;8.690;2023-03-03T01:44:11;29;27;
43280;PMS5003;62175;49.416;8.690;2023-03-03T01:46:47;25;24;
43280;PMS5003;62175;49.416;8.690;2023-03-03T01:49:21;31;29;
43280;PMS5003;62175;49.416;8.690;2023-03-03T01:51:54;30;26;
43280;PMS5003;62175;49.416;8.690;2023-03-03T01:54:27;31;29;
43280;PMS5003;62175;49.416;8.690;2023-03-03T01:57:00;36;32;
43280;PMS5003;62175;49.416;8.690;2023-03-03T01:59:32;30;26;
43280;PMS5003;62175;49.416;8.690;2023-03-03T02:02:03;32;28;
43280;PMS5003;62175;49.416;8.690;2023-03-03T02:04:31;32;29;
43280;PMS5003;62175;49.416;8.690;2023-03-03T02:07:01;24;22;
43280;PMS5003;62175;49.416;8.690;2023-03-03T02:09:36;31;29;
43280;PMS5003;62175;49.416;8.690;2023-03-03T02:12:11;24;24;
43280;PMS5003;62175;49.416;8.690;2023-03-03T02:14:45;24;22;
43280;PMS5003;62175;49.416;8.690;2023-03-03T02:17:14;31;28;
43280;PMS5003;62175;49.416;8.690;2023-03-03T02:19:46;28;27;
43280;PMS5003;62175;49.416;8.690;2023-03-03T02:22:23;25;24;
43280;PMS5003;62175;49.416;8.690;2023-03-03T02:24:59;26;25;
43280;PMS5003;62175;49.416;8.690;2023-03-03T02:27:30;29;28;
43280;PMS5003;62175;49.416;8.690;2023-03-03T02:30:07;32;28;
43280;PMS5003;62175;49.416;8.690;2023-03-03T02:32:39;25;23;
43280;PMS5003;62175;49.416;8.690;2023-03-03T02:35:24;21;21;
43280;PMS5003;62175;49.416;8.690;2023-03-03T02:37:56;27;22;
43280;PMS5003;62175;49.416;8.690;2023-03-03T02:40:30;24;22;
43280;PMS5003;62175;49.416;8.690;2023-03-03T02:43:04;26;23;
43280;PMS5003;62175;49.416;8.690;2023-03-03T02:45:33;34;28;
43280;PMS5003;62175;49.416;8.690;2023-03-03T02:48:07;25;23;
43280;PMS5003;62175;49.416;8.690;2023-03-03T02:50:35;25;24;
43280;PMS5003;62175;49.416;8.690;2023-03-03T02:53:04;34;27;
43280;PMS5003;62175;49.416;8.690;2023-03-03T02:55:32;27;24;
43280;PMS5003;62175;49.416;8.690;2023-03-03T02:58:00;28;25;
43280;PMS5003;62175;49.416;8.690;2023-03-03T03:00:29;23;22;
43280;PMS5003;62175;49.416;8.690;2023-03-03T03:02:58;29;23;
43280;PMS5003;62175;49.416;8.690;2023-03-03T03:05:27;29;27;
43280;PMS5003;62175;49.416;8.690;2023-03-03T03:07:56;23;22;
43280;PMS5003;62175;49.416;8.690;2023-03-03T03:10:24;26;24;
43280;PMS5003;62175;49.416;8.690;2023-03-03T03:12:52;25;24;
43280;PMS5003;62175;49.416;8.690;2023-03-03T03:15:21;26;23;
43280;PMS5003;62175;49.416;8.690;2023-03-03T03:17:49;27;24;
43280;PMS5003;62175;49.416;8.690;2023-03-03T03:20:17;27;25;
43280;PMS5003;62175;49.416;8.690;2023-03-03T03:22:46;24;23;
43280;PMS5003;62175;49.416;8.690;2023-03-03T03:25:14;28;26;
43280;PMS5003;62175;49.416;8.690;2023-03-03T03:27:43;25;21;
43280;PMS5003;62175;49.416;8.690;2023-03-03T03:30:12;29;27;
43280;PMS5003;62175;49.416;8.690;2023-03-03T03:32:40;27;22;
43280;PMS5003;62175;49.416;8.690;2023-03-03T03:35:08;24;21;
43280;PMS5003;62175;49.416;8.690;2023-03-03T03:37:36;26;21;
43280;PMS5003;62175;49.416;8.690;2023-03-03T03:40:04;26;23;
43280;PMS5003;62175;49.416;8.690;2023-03-03T03:42:33;27;25;
43280;PMS5003;62175;49.416;8.690;2023-03-03T03:45:02;26;20;
43280;PMS5003;62175;49.416;8.690;2023-03-03T03:47:32;24;23;
43280;PMS5003;62175;49.416;8.690;2023-03-03T03:50:01;27;22;
43280;PMS5003;62175;49.416;8.690;2023-03-03T03:52:29;27;24;
43280;PMS5003;62175;49.416;8.690;2023-03-03T03:54:58;23;22;
43280;PMS5003;62175;49.416;8.690;2023-03-03T03:57:27;23;20;
43280;PMS5003;62175;49.416;8.690;2023-03-03T03:59:55;26;23;
43280;PMS5003;62175;49.416;8.690;2023-03-03T04:02:25;31;27;
43280;PMS5003;62175;49.416;8.690;2023-03-03T04:04:54;32;29;
43280;PMS5003;62175;49.416;8.690;2023-03-03T04:07:23;28;24;
43280;PMS5003;62175;49.416;8.690;2023-03-03T04:09:52;32;29;
43280;PMS5003;62175;49.416;8.690;2023-03-03T04:12:21;29;28;
43280;PMS5003;62175;49.416;8.690;2023-03-03T04:14:49;25;23;
43280;PMS5003;62175;49.416;8.690;2023-03-03T04:17:19;36;29;
43280;PMS5003;62175;49.416;8.690;2023-03-03T04:19:48;32;30;
43280;PMS5003;62175;49.416;8.690;2023-03-03T04:22:18;29;26;
43280;PMS5003;62175;49.416;8.690;2023-03-03T04:24:47;28;26;
43280;PMS5003;62175;49.416;8.690;2023-03-03T04:27:16;27;22;
43280;PMS5003;62175;49.416;8.690;2023-03-03T04:29:46;29;26;
43280;PMS5003;62175;49.416;8.690;2023-03-03T04:32:19;25;25;
43280;PMS5003;62175;49.416;8.690;2023-03-03T04:34:35;25;25;
43280;PMS5003;62175;49.416;8.690;2023-03-03T04:37:08;24;22;
43280;PMS5003;62175;49.416;8.690;2023-03-03T04:39:56;28;24;
43280;PMS5003;62175;49.416;8.690;2023-03-03T04:42:32;28;25;
43280;PMS5003;62175;49.416;8.690;2023-03-03T04:45:11;27;25;
43280;PMS5003;62175;49.416;8.690;2023-03-03T04:49:18;26;23;
43280;PMS5003;62175;49.416;8.690;2023-03-03T04:51:52;24;21;
43280;PMS5003;62175;49.416;8.690;2023-03-03T04:54:25;30;26;
43280;PMS5003;62175;49.416;8.690;2023-03-03T04:57:35;25;22;
43280;PMS5003;62175;49.416;8.690;2023-03-03T05:00:11;29;27;
43280;PMS5003;62175;49.416;8.690;2023-03-03T05:02:48;27;21;
43280;PMS5003;62175;49.416;8.690;2023-03-03T05:05:19;25;21;
43280;PMS5003;62175;49.416;8.690;2023-03-03T05:07:50;27;25;
43280;PMS5003;62175;49.416;8.690;2023-03-03T05:10:23;31;26;
43280;PMS5003;62175;49.416;8.690;2023-03-03T05:12:56;28;27;
43280;PMS5003;62175;49.416;8.690;2023-03-03T05:17:48;27;24;
43280;PMS5003;62175;49.416;8.690;2023-03-03T05:23:32;27;24;
43280;PMS5003;62175;49.416;8.690;2023-03-03T05:26:19;21;20;
43280;PMS5003;62175;49.416;8.690;2023-03-03T05:29:31;27;22;
43280;PMS5003;62175;49.416;8.690;2023-03-03T05:32:06;25;21;
43280;PMS5003;62175;49.416;8.690;2023-03-03T05:36:27;22;21;
43280;PMS5003;62175;49.416;8.690;2023-03-03T05:54:59;29;28;
43280;PMS5003;62175;49.416;8.690;2023-03-03T05:57:34;32;30;
43280;PMS5003;62175;49.416;8.690;2023-03-03T06:01:16;25;21;
43280;PMS5003;62175;49.416;8.690;2023-03-03T06:03:27;25;21;
43280;PMS5003;62175;49.416;8.690;2023-03-03T06:05:53;29;26;
43280;PMS5003;62175;49.416;8.690;2023-03-03T06:08:21;31;27;
43280;PMS5003;62175;49.416;8.690;2023-03-03T06:10:47;24;24;
43280;PMS5003;62175;49.416;8.690;2023-03-03T06:13:15;21;18;
43280;PMS5003;62175;49.416;8.690;2023-03-03T06:15:42;32;25;
43280;PMS5003;62175;49.416;8.690;2023-03-03T06:18:13;26;24;
43280;PMS5003;62175;49.416;8.690;2023-03-03T06:20:41;25;24;
43280;PMS5003;62175;49.416;8.690;2023-03-03T06:23:08;25;23;
43280;PMS5003;62175;49.416;8.690;2023-03-03T06:25:37;23;19;
43280;PMS5003;62175;49.416;8.690;2023-03-03T06:28:05;29;24;
43280;PMS5003;62175;49.416;8.690;2023-03-03T06:49:08;33;27;
43280;PMS5003;62175;49.416;8.690;2023-03-03T06:52:13;30;25;
43280;PMS5003;62175;49.416;8.690;2023-03-03T06:56:30;29;25;
43280;PMS5003;62175;49.416;8.690;2023-03-03T06:58:15;29;25;
43280;PMS5003;62175;49.416;8.690;2023-03-03T07:01:23;25;23;
43280;PMS5003;62175;49.416;8.690;2023-03-03T07:21:40;29;26;
43280;PMS5003;62175;49.416;8.690;2023-03-03T07:26:55;27;24;
43280;PMS5003;62175;49.416;8.690;2023-03-03T07:29:38;40;32;
43280;PMS5003;62175;49.416;8.690;2023-03-03T07:51:12;37;32;
43280;PMS5003;62175;49.416;8.690;2023-03-03T07:53:33;37;32;
43280;PMS5003;62175;49.416;8.690;2023-03-03T07:56:19;50;44;
43280;PMS5003;62175;49.416;8.690;2023-03-03T08:03:03;45;40;
43280;PMS5003;62175;49.416;8.690;2023-03-03T08:09:23;45;42;
43280;PMS5003;62175;49.416;8.690;2023-03-03T08:11:48;45;42;
43280;PMS5003;62175;49.416;8.690;2023-03-03T08:14:42;44;38;
43280;PMS5003;62175;49.416;8.690;2023-03-03T08:17:30;47;40;
43280;PMS5003;62175;49.416;8.690;2023-03-03T08:35:46;50;42;
43280;PMS5003;62175;49.416;8.690;2023-03-03T08:38:32;65;56;
43280;PMS5003;62175;49.416;8.690;2023-03-03T08:42:13;58;50;
43280;PMS5003;62175;49.416;8.690;2023-03-03T08:44:52;54;46;
43280;PMS5003;62175;49.416;8.690;2023-03-03T08:47:47;55;48;
43280;PMS5003;62175;49.416;8.690;2023-03-03T08:52:46;46;43;
43280;PMS5003;62175;49.416;8.690;2023-03-03T08:55:18;40;37;
43280;PMS5003;62175;49.416;8.690;2023-03-03T08:57:50;45;37;
43280;PMS5003;62175;49.416;8.690;2023-03-03T09:00:31;48;43;
43280;PMS5003;62175;49.416;8.690;2023-03-03T09:03:02;45;42;
43280;PMS5003;62175;49.416;8.690;2023-03-03T09:05:33;42;36;
43280;PMS5003;62175;49.416;8.690;2023-03-03T09:08:22;43;36;
43280;PMS5003;62175;49.416;8.690;2023-03-03T09:10:54;46;42;
43280;PMS5003;62175;49.416;8.690;2023-03-03T09:13:23;43;38;
43280;PMS5003;62175;49.416;8.690;2023-03-03T09:15:56;44;39;
43280;PMS5003;62175;49.416;8.690;2023-03-03T09:18:31;51;44;
43280;PMS5003;62175;49.416;8.690;2023-03-03T09:21:16;50;44;
43280;PMS5003;62175;49.416;8.690;2023-03-03T09:23:52;44;43;
43280;PMS5003;62175;49.416;8.690;2023-03-03T09:26:22;51;47;
43280;PMS5003;62175;49.416;8.690;2023-03-03T09:28:54;56;46;
43280;PMS5003;62175;49.416;8.690;2023-03-03T09:31:38;50;43;
43280;PMS5003;62175;49.416;8.690;2023-03-03T09:34:19;49;46;
43280;PMS5003;62175;49.416;8.690;2023-03-03T09:37:00;49;46;
43280;PMS5003;62175;49.416;8.690;2023-03-03T09:39:48;53;48;
43280;PMS5003;62175;49.416;8.690;2023-03-03T09:42:37;51;46;
43280;PMS5003;62175;49.416;8.690;2023-03-03T09:45:26;50;46;
43280;PMS5003;62175;49.416;8.690;2023-03-03T10:04:10;49;47;
43280;PMS5003;62175;49.416;8.690;2023-03-03T10:07:22;51;45;
43280;PMS5003;62175;49.416;8.690;2023-03-03T10:09:53;51;46;
43280;PMS5003;62175;49.416;8.690;2023-03-03T10:15:11;54;50;
43280;PMS5003;62175;49.416;8.690;2023-03-03T10:18:02;57;49;
43280;PMS5003;62175;49.416;8.690;2023-03-03T10:20:53;56;50;
43280;PMS5003;62175;49.416;8.690;2023-03-03T10:23:52;57;49;
43280;PMS5003;62175;49.416;8.690;2023-03-03T10:27:11;56;51;
43280;PMS5003;62175;49.416;8.690;2023-03-03T10:44:53;57;51;
43280;PMS5003;62175;49.416;8.690;2023-03-03T10:48:05;55;52;
43280;PMS5003;62175;49.416;8.690;2023-03-03T10:50:48;55;49;
43280;PMS5003;62175;49.416;8.690;2023-03-03T23:11:28;26;23;
43280;PMS5003;62175;49.416;8.690;2023-03-03T23:13:55;30;28;
43280;PMS5003;62175;49.416;8.690;2023-03-03T23:16:21;30;25;
43280;PMS5003;62175;49.416;8.690;2023-03-03T23:18:49;25;21;
43280;PMS5003;62175;49.416;8.690;2023-03-03T23:21:15;25;24;
43280;PMS5003;62175;49.416;8.690;2023-03-03T23:23:42;22;21;
43280;PMS5003;62175;49.416;8.690;2023-03-03T23:26:10;27;24;
43280;PMS5003;62175;49.416;8.690;2023-03-03T23:28:37;26;23;
43280;PMS5003;62175;49.416;8.690;2023-03-03T23:31:05;28;25;
43280;PMS5003;62175;49.416;8.690;2023-03-03T23:33:35;24;21;
43280;PMS5003;62175;49.416;8.690;2023-03-03T23:36:02;27;24;
43280;PMS5003;62175;49.416;8.690;2023-03-03T23:38:30;22;19;
43280;PMS5003;62175;49.416;8.690;2023-03-03T23:40:58;21;20;
43280;PMS5003;62175;49.416;8.690;2023-03-03T23:43:27;23;19;
43280;PMS5003;62175;49.416;8.690;2023-03-03T23:45:58;19;17;
43280;PMS5003;62175;49.416;8.690;2023-03-03T23:48:26;25;22;
43280;PMS5003;62175;49.416;8.690;2023-03-03T23:50:57;21;19;
43280;PMS5003;62175;49.416;8.690;2023-03-03T23:53:25;26;22;
43280;PMS5003;62175;49.416;8.690;2023-03-03T23:55:54;22;19;
43280;PMS5003;62175;49.416;8.690;2023-03-03T23:58:27;22;19;
